createdAt,value
2022-10-02T00:02:57.262Z,95.07
2022-10-02T00:13:06.121Z,95.36
2022-10-02T00:23:18.424Z,95.16
2022-10-02T00:33:34.282Z,94.77
2022-10-02T00:43:54.868Z,94.70
2022-10-02T00:54:06.846Z,94.89
2022-10-02T01:04:34.569Z,94.87
2022-10-02T01:14:44.743Z,94.92
2022-10-02T01:24:55.453Z,95.03
2022-10-02T01:35:04.999Z,94.94
2022-10-02T01:45:12.462Z,95.29
2022-10-02T01:55:32.895Z,96.40
2022-10-02T02:05:50.677Z,97.01
2022-10-02T02:16:06.519Z,97.24
2022-10-02T02:26:13.075Z,96.58
2022-10-02T02:36:27.236Z,96.58
2022-10-02T02:47:03.279Z,96.78
2022-10-02T02:57:12.741Z,97.18
2022-10-02T03:07:21.033Z,97.27
2022-10-02T03:17:43.460Z,97.45
2022-10-02T03:28:01.829Z,98.74
2022-10-02T03:38:17.585Z,99.33
2022-10-02T03:48:25.825Z,99.09
2022-10-02T03:58:31.032Z,99.05
2022-10-02T04:08:39.793Z,99.15
2022-10-02T04:18:57.047Z,98.91
2022-10-02T04:29:14.836Z,98.70
2022-10-02T04:39:46.492Z,98.46
2022-10-02T04:50:11.325Z,97.68
2022-10-02T05:00:23.889Z,97.08
2022-10-02T05:10:53.585Z,95.79
2022-10-02T05:21:17.860Z,90.62
2022-10-02T05:31:34.012Z,86.58
2022-10-02T05:41:47.165Z,85.37
2022-10-02T05:52:01.231Z,84.36
2022-10-02T06:02:16.664Z,83.22
2022-10-02T06:12:33.907Z,83.22
2022-10-02T06:22:45.326Z,91.60
2022-10-02T06:32:56.042Z,83.95
2022-10-02T06:43:08.028Z,80.40
2022-10-02T06:53:45.647Z,74.04
2022-10-02T07:04:31.270Z,76.76
2022-10-02T07:15:16.086Z,70.18
2022-10-02T07:25:48.010Z,71.29
2022-10-02T07:36:12.160Z,73.85
2022-10-02T07:46:29.390Z,72.29
2022-10-02T07:56:37.120Z,66.81
2022-10-02T08:06:47.319Z,67.18
2022-10-02T08:16:55.143Z,62.61
2022-10-02T08:27:11.058Z,62.09
2022-10-02T08:37:38.894Z,65.49
2022-10-02T08:48:22.647Z,64.52
2022-10-02T08:59:05.927Z,65.43
2022-10-02T09:09:54.701Z,67.28
2022-10-02T09:20:42.155Z,65.10
2022-10-02T09:31:32.711Z,62.85
2022-10-02T09:42:16.596Z,60.87
2022-10-02T09:52:56.823Z,59.68
2022-10-02T10:03:39.657Z,62.63
2022-10-02T10:14:34.080Z,64.19
2022-10-02T10:25:31.901Z,61.22
2022-10-02T10:35:54.702Z,59.76
2022-10-02T10:57:42.670Z,60.78
2022-10-02T11:08:20.512Z,60.24
2022-10-02T11:19:07.995Z,61.18
2022-10-02T11:29:35.535Z,60.45
2022-10-02T11:40:08.327Z,62.18
2022-10-02T11:51:03.785Z,60.93
2022-10-02T12:01:33.610Z,60.01
2022-10-02T12:45:21.860Z,60.63
2022-10-02T12:56:08.690Z,62.42
2022-10-02T13:06:42.840Z,63.13
2022-10-02T13:17:18.206Z,63.82
2022-10-02T13:27:37.494Z,63.38
2022-10-02T13:37:56.043Z,63.68
2022-10-02T13:48:14.041Z,63.84
2022-10-02T13:58:42.598Z,65.20
2022-10-02T14:09:12.415Z,66.21
2022-10-02T14:19:48.656Z,67.39
2022-10-02T14:30:10.736Z,68.41
2022-10-02T14:40:24.464Z,69.73
2022-10-02T14:50:59.033Z,70.08
2022-10-02T15:43:32.836Z,71.00
2022-10-02T16:05:30.884Z,71.70
2022-10-02T16:15:57.186Z,72.99
2022-10-02T16:26:40.424Z,72.73
2022-10-02T16:36:56.318Z,73.14
2022-10-02T16:47:17.876Z,73.43
2022-10-02T17:08:38.346Z,73.60
2022-10-02T18:24:07.880Z,75.15
2022-10-02T18:45:12.244Z,75.05
2022-10-02T18:55:44.101Z,75.58
2022-10-02T19:16:23.596Z,76.18
2022-10-02T19:26:37.846Z,77.76
2022-10-02T19:36:50.538Z,78.01
2022-10-02T19:46:59.414Z,78.89
2022-10-02T19:57:13.456Z,79.88
2022-10-02T20:07:31.010Z,80.51
2022-10-02T20:17:39.069Z,81.66
2022-10-02T20:27:56.571Z,82.90
2022-10-02T20:38:19.700Z,83.78
2022-10-02T20:49:08.541Z,84.38
2022-10-02T20:59:59.409Z,85.12
2022-10-02T21:10:43.372Z,85.84
2022-10-02T21:21:24.500Z,86.96
2022-10-02T21:31:42.492Z,87.70
2022-10-02T21:42:38.501Z,87.94
2022-10-02T21:53:36.709Z,88.62
2022-10-02T22:04:21.767Z,88.21
2022-10-02T22:14:33.432Z,90.03
2022-10-02T22:25:09.806Z,91.61
2022-10-02T22:35:24.322Z,91.10
2022-10-02T22:45:35.155Z,91.70
2022-10-02T22:55:55.275Z,91.98
2022-10-02T23:06:07.186Z,92.95
2022-10-02T23:16:20.726Z,92.63
2022-10-02T23:26:34.318Z,92.40
2022-10-02T23:36:48.557Z,93.26
2022-10-02T23:47:10.429Z,92.49
2022-10-02T23:57:39.487Z,93.11
